Time;durP1;ratioP1;P1;durP2;ratioP2;P2;SDS_P1;SDS_P2;PMS_P1;PMS_P2;Temp;Humidity;BMP_temperature;BMP_pressure;BME280_temperature;BME280_humidity;BME280_pressure;Samples;Min_cycle;Max_cycle;Signal;HPM_P1;HPM_P2
2024/01/29 00:01:44;;;;;;;20.20;6.60;;;;;;;;;;104597;1291;544849;-72
2024/01/29 00:05:18;;;;;;;20.40;8.40;;;;;;;;;;103775;1291;544891;-72
2024/01/29 00:08:57;;;;;;;22.60;9.40;;;;;;;;;;103774;1289;544952;-72
2024/01/29 00:12:34;;;;;;;20.90;9.10;;;;;;;;;;103910;1294;544914;-72
2024/01/29 00:16:14;;;;;;;20.30;9.30;;;;;;;;;;103694;1289;544849;-71
2024/01/29 00:19:48;;;;;;;22.90;9.20;;;;;;;;;;103723;1292;544789;-71
2024/01/29 00:23:25;;;;;;;23.20;11.00;;;;;;;;;;103682;1295;545896;-69
2024/01/29 00:27:03;;;;;;;23.70;12.90;;;;;;;;;;103717;1292;545030;-70
2024/01/29 00:30:41;;;;;;;28.40;13.90;;;;;;;;;;103718;1295;544837;-70
2024/01/29 00:34:19;;;;;;;25.00;12.00;;;;;;;;;;103875;1289;544972;-70
2024/01/29 00:37:55;;;;;;;23.30;10.10;;;;;;;;;;103708;1292;544848;-71
2024/01/29 00:41:33;;;;;;;21.70;8.90;;;;;;;;;;103761;1289;545579;-72
2024/01/29 00:45:10;;;;;;;17.80;7.90;;;;;;;;;;104052;1288;544739;-71
2024/01/29 00:48:48;;;;;;;19.10;8.40;;;;;;;;;;103908;1289;544787;-70
2024/01/29 00:52:25;;;;;;;18.20;7.30;;;;;;;;;;103708;1290;545783;-71
2024/01/29 00:56:03;;;;;;;20.40;7.80;;;;;;;;;;103714;1291;545474;-72
2024/01/29 00:59:40;;;;;;;16.90;7.00;;;;;;;;;;103720;1292;544957;-71
2024/01/29 01:03:18;;;;;;;18.80;7.60;;;;;;;;;;103762;1289;545480;-71
2024/01/29 01:06:55;;;;;;;15.80;6.60;;;;;;;;;;103731;1291;544786;-70
2024/01/29 01:10:33;;;;;;;16.70;7.00;;;;;;;;;;103732;1289;545126;-71
2024/01/29 01:14:10;;;;;;;17.30;7.50;;;;;;;;;;103709;1291;544944;-72
2024/01/29 01:17:48;;;;;;;15.90;7.20;;;;;;;;;;103730;1291;545869;-70
2024/01/29 01:21:21;;;;;;;16.10;6.40;;;;;;;;;;103924;1290;544977;-70
2024/01/29 01:25:03;;;;;;;18.10;6.20;;;;;;;;;;103842;1288;544712;-71
2024/01/29 01:28:40;;;;;;;15.80;6.70;;;;;;;;;;103565;1292;544823;-71
2024/01/29 01:32:17;;;;;;;13.60;5.80;;;;;;;;;;103685;1290;544986;-72
2024/01/29 01:35:55;;;;;;;14.10;5.70;;;;;;;;;;103696;1290;544857;-73
2024/01/29 01:39:32;;;;;;;13.50;5.40;;;;;;;;;;103716;1291;544977;-71
2024/01/29 01:43:17;;;;;;;14.00;5.50;;;;;;;;;;103702;1289;545547;-73
2024/01/29 01:46:48;;;;;;;13.70;4.80;;;;;;;;;;103676;1291;545657;-70
2024/01/29 01:50:25;;;;;;;13.90;5.10;;;;;;;;;;103620;1292;544977;-71
2024/01/29 01:54:02;;;;;;;12.10;4.40;;;;;;;;;;103878;1289;544993;-70
2024/01/29 01:57:42;;;;;;;11.50;4.20;;;;;;;;;;103697;1290;544992;-70
2024/01/29 02:01:17;;;;;;;12.40;4.00;;;;;;;;;;103544;1292;544819;-71
2024/01/29 02:04:55;;;;;;;11.30;4.10;;;;;;;;;;103587;1291;544797;-73
2024/01/29 02:08:33;;;;;;;11.60;3.70;;;;;;;;;;103693;1292;544995;-73
2024/01/29 02:12:10;;;;;;;11.10;3.40;;;;;;;;;;104031;1287;546031;-70
2024/01/29 02:15:48;;;;;;;9.20;3.10;;;;;;;;;;103780;1292;544955;-73
2024/01/29 02:19:25;;;;;;;11.40;3.60;;;;;;;;;;103711;1293;544935;-72
2024/01/29 02:22:58;;;;;;;11.30;4.10;;;;;;;;;;104038;1286;546296;-71
2024/01/29 02:26:44;;;;;;;11.20;4.10;;;;;;;;;;103728;1289;544777;-73
2024/01/29 02:30:17;;;;;;;10.80;3.70;;;;;;;;;;103772;1295;545194;-71
2024/01/29 02:33:51;;;;;;;11.80;5.00;;;;;;;;;;103728;1289;545002;-72
2024/01/29 02:37:32;;;;;;;13.80;5.00;;;;;;;;;;103624;1291;545477;-71
2024/01/29 02:41:10;;;;;;;14.70;5.20;;;;;;;;;;104232;1289;544884;-70
2024/01/29 02:44:47;;;;;;;12.20;4.40;;;;;;;;;;103909;1288;544832;-71
2024/01/29 02:48:24;;;;;;;11.10;4.00;;;;;;;;;;103803;1289;544922;-73
2024/01/29 02:52:07;;;;;;;11.70;4.50;;;;;;;;;;103501;1292;548119;-71
2024/01/29 02:55:39;;;;;;;11.80;4.40;;;;;;;;;;103392;1298;545133;-72
2024/01/29 02:59:16;;;;;;;17.70;5.80;;;;;;;;;;103742;1292;544592;-70
2024/01/29 03:02:57;;;;;;;15.30;5.20;;;;;;;;;;103761;1289;545033;-71
2024/01/29 03:06:32;;;;;;;16.80;6.40;;;;;;;;;;103680;1289;544790;-71
2024/01/29 03:10:09;;;;;;;17.30;7.90;;;;;;;;;;103837;1292;545786;-71
2024/01/29 03:13:47;;;;;;;16.70;7.00;;;;;;;;;;103824;1289;545027;-72
2024/01/29 03:17:24;;;;;;;18.10;7.90;;;;;;;;;;103658;1291;544781;-71
2024/01/29 03:21:02;;;;;;;20.00;9.00;;;;;;;;;;103725;1289;544952;-73
2024/01/29 03:24:39;;;;;;;22.80;11.50;;;;;;;;;;103673;1291;544792;-71
2024/01/29 03:28:16;;;;;;;21.40;10.70;;;;;;;;;;103718;1292;545507;-73
2024/01/29 03:31:54;;;;;;;23.90;10.30;;;;;;;;;;103690;1295;544874;-72
2024/01/29 03:35:32;;;;;;;21.90;11.10;;;;;;;;;;103598;1291;544918;-73
2024/01/29 03:39:09;;;;;;;23.00;11.30;;;;;;;;;;103728;1295;545781;-70
2024/01/29 03:42:46;;;;;;;23.20;11.90;;;;;;;;;;103689;1295;544842;-70
2024/01/29 03:46:24;;;;;;;24.40;12.00;;;;;;;;;;104203;1283;544864;-73
2024/01/29 03:50:03;;;;;;;22.00;9.70;;;;;;;;;;103793;1295;545589;-70
2024/01/29 03:53:39;;;;;;;11.60;5.20;;;;;;;;;;103775;1289;545063;-70
2024/01/29 03:57:16;;;;;;;13.10;4.70;;;;;;;;;;103722;1292;545173;-70
2024/01/29 04:00:54;;;;;;;12.00;4.10;;;;;;;;;;104188;1286;545491;-72
2024/01/29 04:04:33;;;;;;;10.50;3.80;;;;;;;;;;103686;1289;545022;-71
2024/01/29 04:08:09;;;;;;;9.20;4.00;;;;;;;;;;103708;1302;545966;-72
2024/01/29 04:11:46;;;;;;;11.10;5.40;;;;;;;;;;103768;1296;544842;-72
2024/01/29 04:15:24;;;;;;;10.80;4.50;;;;;;;;;;103807;1291;545721;-71
2024/01/29 04:19:01;;;;;;;10.60;4.00;;;;;;;;;;103795;1289;544949;-72
2024/01/29 04:22:39;;;;;;;10.50;3.90;;;;;;;;;;103742;1291;545848;-73
2024/01/29 04:26:15;;;;;;;14.70;5.70;;;;;;;;;;103590;1291;545995;-72
2024/01/29 04:29:53;;;;;;;12.70;5.00;;;;;;;;;;103616;1294;545094;-72
2024/01/29 04:33:31;;;;;;;10.20;3.70;;;;;;;;;;104827;1280;544990;-70
2024/01/29 04:37:09;;;;;;;12.70;3.40;;;;;;;;;;103774;1288;544713;-71
2024/01/29 04:40:46;;;;;;;9.20;3.50;;;;;;;;;;103697;1290;544842;-71
2024/01/29 04:44:25;;;;;;;11.70;4.10;;;;;;;;;;103786;1289;545236;-73
2024/01/29 04:48:00;;;;;;;13.70;5.00;;;;;;;;;;103671;1289;545085;-73
2024/01/29 04:51:34;;;;;;;14.20;4.50;;;;;;;;;;103770;1288;545400;-71
2024/01/29 04:55:16;;;;;;;13.90;5.10;;;;;;;;;;103785;1290;545752;-71
2024/01/29 04:58:54;;;;;;;14.50;6.10;;;;;;;;;;103797;1292;545039;-73
2024/01/29 05:02:50;;;;;;;18.70;6.90;;;;;;;;;;103604;1295;548229;-72
2024/01/29 05:06:09;;;;;;;13.10;5.30;;;;;;;;;;103880;1288;544779;-72
2024/01/29 05:09:45;;;;;;;10.90;4.30;;;;;;;;;;103685;1295;544957;-73
2024/01/29 05:13:23;;;;;;;9.80;3.70;;;;;;;;;;103964;1289;544733;-71
2024/01/29 05:17:01;;;;;;;10.20;3.30;;;;;;;;;;103427;1295;544930;-73
2024/01/29 05:20:38;;;;;;;10.30;3.30;;;;;;;;;;103687;1292;544968;-73
2024/01/29 05:24:15;;;;;;;9.70;3.20;;;;;;;;;;103743;1290;546117;-72
2024/01/29 05:27:53;;;;;;;10.80;3.20;;;;;;;;;;103700;1292;545376;-73
2024/01/29 05:31:36;;;;;;;9.50;3.20;;;;;;;;;;103541;1292;547793;-72
2024/01/29 05:35:09;;;;;;;9.20;2.90;;;;;;;;;;103642;1291;544731;-71
2024/01/29 05:38:45;;;;;;;15.10;3.90;;;;;;;;;;103732;1291;544962;-72
2024/01/29 05:42:29;;;;;;;10.50;3.40;;;;;;;;;;103514;1293;548038;-73
2024/01/29 05:46:00;;;;;;;11.50;3.60;;;;;;;;;;103671;1291;544770;-72
2024/01/29 05:49:38;;;;;;;11.70;3.30;;;;;;;;;;103698;1294;544838;-73
2024/01/29 05:53:19;;;;;;;10.20;3.20;;;;;;;;;;103764;1292;545502;-72
2024/01/29 05:56:53;;;;;;;10.80;3.30;;;;;;;;;;103704;1295;545511;-73
2024/01/29 06:00:29;;;;;;;8.30;2.80;;;;;;;;;;103794;1289;544759;-72
2024/01/29 06:04:07;;;;;;;9.10;2.90;;;;;;;;;;103334;1294;545355;-72
2024/01/29 06:07:45;;;;;;;9.80;3.40;;;;;;;;;;103411;1298;544961;-73
2024/01/29 06:11:22;;;;;;;8.70;3.00;;;;;;;;;;103705;1292;545471;-72
2024/01/29 06:14:59;;;;;;;10.50;3.60;;;;;;;;;;103654;1291;544928;-72
2024/01/29 06:18:38;;;;;;;11.60;3.80;;;;;;;;;;103713;1289;544817;-73
2024/01/29 06:22:16;;;;;;;15.00;6.20;;;;;;;;;;103790;1289;545540;-72
2024/01/29 06:25:53;;;;;;;17.30;6.30;;;;;;;;;;103712;1292;544886;-72
2024/01/29 06:29:30;;;;;;;12.70;5.10;;;;;;;;;;103609;1294;544939;-74
2024/01/29 06:33:07;;;;;;;11.90;4.50;;;;;;;;;;103762;1291;544911;-72
2024/01/29 06:36:40;;;;;;;13.60;5.10;;;;;;;;;;103875;1292;544785;-73
2024/01/29 06:40:27;;;;;;;11.90;4.60;;;;;;;;;;103697;1292;545960;-73
2024/01/29 06:43:59;;;;;;;12.10;4.40;;;;;;;;;;103802;1292;544704;-73
2024/01/29 06:47:38;;;;;;;11.50;4.10;;;;;;;;;;103988;1286;544913;-73
2024/01/29 06:51:16;;;;;;;12.10;4.50;;;;;;;;;;103780;1289;545297;-73
2024/01/29 06:54:53;;;;;;;11.50;3.50;;;;;;;;;;103686;1291;545648;-72
2024/01/29 06:58:30;;;;;;;12.50;3.70;;;;;;;;;;103727;1291;546098;-73
2024/01/29 07:02:08;;;;;;;12.50;5.20;;;;;;;;;;103575;1295;544869;-74
2024/01/29 07:05:46;;;;;;;21.40;9.50;;;;;;;;;;103667;1291;545506;-72
2024/01/29 07:09:23;;;;;;;18.50;7.20;;;;;;;;;;103630;1291;545442;-73
2024/01/29 07:12:59;;;;;;;15.40;5.10;;;;;;;;;;103785;1289;545007;-72
2024/01/29 07:16:38;;;;;;;15.80;5.70;;;;;;;;;;103677;1292;546330;-72
2024/01/29 07:20:14;;;;;;;17.70;5.80;;;;;;;;;;103755;1288;545370;-72
2024/01/29 07:23:53;;;;;;;19.40;6.10;;;;;;;;;;103682;1295;545452;-72
2024/01/29 07:27:25;;;;;;;15.40;5.40;;;;;;;;;;103860;1288;544998;-73
2024/01/29 07:31:07;;;;;;;14.40;5.30;;;;;;;;;;103830;1289;544862;-73
2024/01/29 07:34:44;;;;;;;13.30;5.10;;;;;;;;;;103717;1290;544935;-74
2024/01/29 07:38:22;;;;;;;13.10;5.00;;;;;;;;;;103726;1292;544771;-73
2024/01/29 07:41:59;;;;;;;15.50;4.60;;;;;;;;;;103721;1291;545523;-73
2024/01/29 07:45:38;;;;;;;12.70;4.70;;;;;;;;;;104572;1282;545052;-73
2024/01/29 07:49:13;;;;;;;15.20;5.80;;;;;;;;;;103684;1289;545131;-72
2024/01/29 07:52:52;;;;;;;17.30;5.10;;;;;;;;;;103778;1288;545019;-73
2024/01/29 07:56:29;;;;;;;13.20;4.40;;;;;;;;;;103719;1291;545722;-73
2024/01/29 08:00:07;;;;;;;14.40;5.20;;;;;;;;;;103686;1288;546681;-72
2024/01/29 08:03:43;;;;;;;14.40;5.40;;;;;;;;;;103704;1295;545563;-73
2024/01/29 08:07:22;;;;;;;15.20;5.70;;;;;;;;;;103715;1292;546242;-73
2024/01/29 08:10:59;;;;;;;15.80;6.60;;;;;;;;;;103792;1288;544820;-73
2024/01/29 08:14:37;;;;;;;15.50;6.20;;;;;;;;;;103788;1288;545086;-73
2024/01/29 08:18:13;;;;;;;12.40;5.30;;;;;;;;;;103725;1293;544881;-74
2024/01/29 08:21:51;;;;;;;15.00;5.30;;;;;;;;;;103669;1292;545533;-72
2024/01/29 08:25:48;;;;;;;17.70;5.60;;;;;;;;;;103652;1294;550423;-73
2024/01/29 08:29:07;;;;;;;11.40;4.20;;;;;;;;;;103718;1291;544857;-73
2024/01/29 08:32:44;;;;;;;10.10;3.60;;;;;;;;;;103737;1292;545026;-73
2024/01/29 08:36:22;;;;;;;11.30;3.70;;;;;;;;;;103818;1289;544955;-74
2024/01/29 08:39:58;;;;;;;10.50;4.00;;;;;;;;;;103688;1292;545782;-73
2024/01/29 08:43:36;;;;;;;10.00;3.30;;;;;;;;;;103844;1289;545701;-73
2024/01/29 08:47:13;;;;;;;9.70;3.80;;;;;;;;;;103796;1291;544985;-73
2024/01/29 08:50:51;;;;;;;10.80;3.90;;;;;;;;;;103735;1289;544916;-72
2024/01/29 08:54:29;;;;;;;11.70;4.20;;;;;;;;;;104286;1289;545525;-73
2024/01/29 08:58:06;;;;;;;10.50;3.50;;;;;;;;;;103728;1292;545470;-72
2024/01/29 09:01:43;;;;;;;11.50;4.00;;;;;;;;;;103686;1292;544974;-71
2024/01/29 09:05:21;;;;;;;10.80;3.50;;;;;;;;;;103713;1289;545090;-69
2024/01/29 09:08:58;;;;;;;9.70;3.50;;;;;;;;;;104097;1288;545916;-71
2024/01/29 09:12:36;;;;;;;11.20;3.80;;;;;;;;;;103956;1287;545153;-71
2024/01/29 09:16:13;;;;;;;11.90;4.90;;;;;;;;;;103701;1292;546116;-71
2024/01/29 09:19:51;;;;;;;13.10;5.90;;;;;;;;;;103697;1292;545342;-72
2024/01/29 09:23:31;;;;;;;14.90;7.10;;;;;;;;;;103740;1291;545070;-69
2024/01/29 09:27:06;;;;;;;11.90;5.10;;;;;;;;;;103659;1291;544643;-71
2024/01/29 09:30:43;;;;;;;12.00;5.30;;;;;;;;;;103843;1289;545946;-73
2024/01/29 09:34:22;;;;;;;12.50;4.80;;;;;;;;;;103689;1289;544905;-72
2024/01/29 09:37:58;;;;;;;10.80;3.80;;;;;;;;;;103722;1294;545050;-70
2024/01/29 09:41:36;;;;;;;12.00;4.70;;;;;;;;;;103913;1292;544828;-71
2024/01/29 09:45:13;;;;;;;9.10;4.00;;;;;;;;;;103713;1289;545483;-73
2024/01/29 09:48:51;;;;;;;11.60;3.40;;;;;;;;;;103708;1301;544793;-71
2024/01/29 09:52:28;;;;;;;11.20;3.90;;;;;;;;;;103790;1289;545688;-70
2024/01/29 09:56:05;;;;;;;8.40;3.10;;;;;;;;;;103544;1289;545540;-72
2024/01/29 09:59:42;;;;;;;9.50;4.30;;;;;;;;;;103513;1294;544964;-72
2024/01/29 10:03:24;;;;;;;12.80;3.50;;;;;;;;;;103756;1288;545741;-70
2024/01/29 10:06:58;;;;;;;11.80;4.70;;;;;;;;;;103683;1291;544830;-71
2024/01/29 10:10:35;;;;;;;9.80;3.80;;;;;;;;;;103707;1291;545710;-74
2024/01/29 10:14:12;;;;;;;11.10;3.80;;;;;;;;;;103735;1291;545291;-72
2024/01/29 10:17:53;;;;;;;10.20;4.10;;;;;;;;;;103906;1286;544984;-72
2024/01/29 10:21:24;;;;;;;14.10;6.00;;;;;;;;;;103774;1288;545024;-71
2024/01/29 10:25:06;;;;;;;9.80;3.70;;;;;;;;;;103721;1291;544917;-70
2024/01/29 10:28:42;;;;;;;9.90;3.40;;;;;;;;;;103823;1291;545795;-71
2024/01/29 10:32:21;;;;;;;8.60;3.40;;;;;;;;;;103819;1289;545408;-71
2024/01/29 10:36:00;;;;;;;7.10;2.80;;;;;;;;;;103444;1295;544816;-72
2024/01/29 10:39:36;;;;;;;7.00;2.30;;;;;;;;;;103838;1289;545991;-71
2024/01/29 10:43:18;;;;;;;8.60;3.30;;;;;;;;;;103799;1292;545039;-70
2024/01/29 10:46:52;;;;;;;8.40;3.40;;;;;;;;;;103490;1297;544914;-73
2024/01/29 10:50:27;;;;;;;9.50;3.60;;;;;;;;;;103725;1292;544708;-71
2024/01/29 10:54:05;;;;;;;9.30;3.60;;;;;;;;;;103835;1290;545067;-72
2024/01/29 10:57:46;;;;;;;10.70;3.50;;;;;;;;;;103745;1294;545132;-71
2024/01/29 11:01:20;;;;;;;11.60;3.30;;;;;;;;;;103770;1291;546081;-72
2024/01/29 11:04:57;;;;;;;6.80;2.50;;;;;;;;;;103704;1289;544705;-71
2024/01/29 11:08:39;;;;;;;10.00;3.20;;;;;;;;;;103737;1292;544873;-71
2024/01/29 11:12:13;;;;;;;10.00;3.00;;;;;;;;;;103730;1290;545397;-71
2024/01/29 11:15:50;;;;;;;7.80;2.80;;;;;;;;;;103577;1292;544620;-72
2024/01/29 11:19:32;;;;;;;8.70;3.30;;;;;;;;;;103769;1289;545250;-70
2024/01/29 11:23:05;;;;;;;8.00;3.00;;;;;;;;;;104138;1287;545038;-71
2024/01/29 11:26:42;;;;;;;8.20;2.90;;;;;;;;;;103816;1295;544889;-71
2024/01/29 11:30:22;;;;;;;9.60;3.70;;;;;;;;;;103829;1289;544759;-70
2024/01/29 11:34:04;;;;;;;11.10;3.80;;;;;;;;;;103858;1289;545686;-71
2024/01/29 11:37:35;;;;;;;10.00;3.60;;;;;;;;;;103714;1291;544767;-71
2024/01/29 11:41:08;;;;;;;8.90;3.30;;;;;;;;;;103838;1289;544739;-73
2024/01/29 11:44:50;;;;;;;11.10;3.90;;;;;;;;;;103704;1292;545147;-72
2024/01/29 11:48:26;;;;;;;10.30;3.40;;;;;;;;;;103714;1292;544717;-71
2024/01/29 11:52:07;;;;;;;11.10;3.20;;;;;;;;;;103684;1289;545090;-72
2024/01/29 11:55:42;;;;;;;10.90;3.40;;;;;;;;;;103717;1290;545757;-72
2024/01/29 11:59:19;;;;;;;11.10;3.70;;;;;;;;;;103607;1299;545590;-72
2024/01/29 12:02:56;;;;;;;14.20;3.80;;;;;;;;;;103770;1289;544901;-71
2024/01/29 12:06:34;;;;;;;10.50;3.90;;;;;;;;;;104141;1285;544943;-72
2024/01/29 12:10:11;;;;;;;11.40;4.10;;;;;;;;;;103776;1289;544968;-74
2024/01/29 12:13:50;;;;;;;12.40;4.00;;;;;;;;;;103633;1292;545635;-71
2024/01/29 12:17:26;;;;;;;13.70;4.20;;;;;;;;;;103781;1289;544782;-71
2024/01/29 12:21:00;;;;;;;11.60;3.80;;;;;;;;;;103645;1291;544788;-72
2024/01/29 12:24:41;;;;;;;14.70;4.50;;;;;;;;;;103752;1289;544753;-72
2024/01/29 12:28:19;;;;;;;13.00;4.80;;;;;;;;;;103756;1293;545283;-71
2024/01/29 12:31:56;;;;;;;11.50;4.20;;;;;;;;;;104104;1286;545028;-70
2024/01/29 12:35:36;;;;;;;10.40;3.80;;;;;;;;;;103633;1291;544809;-72
2024/01/29 12:39:11;;;;;;;9.70;3.40;;;;;;;;;;103784;1292;544760;-70
2024/01/29 12:42:58;;;;;;;10.70;3.10;;;;;;;;;;103822;1288;545249;-71
2024/01/29 12:46:26;;;;;;;9.40;3.90;;;;;;;;;;103957;1288;545424;-70
2024/01/29 12:50:04;;;;;;;9.00;4.50;;;;;;;;;;103650;1294;546043;-71
2024/01/29 12:53:42;;;;;;;10.50;4.10;;;;;;;;;;103878;1289;544803;-72
2024/01/29 12:57:19;;;;;;;10.80;4.00;;;;;;;;;;103730;1291;545535;-71
2024/01/29 13:00:52;;;;;;;12.50;5.60;;;;;;;;;;103772;1289;545089;-71
2024/01/29 13:04:33;;;;;;;15.40;5.50;;;;;;;;;;103758;1289;544915;-71
2024/01/29 13:08:11;;;;;;;13.40;5.70;;;;;;;;;;103731;1291;545576;-72
2024/01/29 13:11:49;;;;;;;15.30;6.80;;;;;;;;;;103667;1291;545788;-74
2024/01/29 13:15:26;;;;;;;12.20;5.40;;;;;;;;;;103817;1288;545501;-72
2024/01/29 13:19:06;;;;;;;15.50;5.60;;;;;;;;;;103737;1291;544972;-71
2024/01/29 13:22:41;;;;;;;13.20;5.80;;;;;;;;;;103926;1290;545436;-71
2024/01/29 13:26:18;;;;;;;14.40;7.70;;;;;;;;;;103625;1291;545458;-70
2024/01/29 13:29:55;;;;;;;13.10;6.00;;;;;;;;;;103900;1289;545999;-71
2024/01/29 13:33:33;;;;;;;14.40;6.40;;;;;;;;;;103739;1292;545184;-72
2024/01/29 13:37:06;;;;;;;14.30;6.70;;;;;;;;;;103712;1289;544853;-73
2024/01/29 13:40:48;;;;;;;13.30;6.70;;;;;;;;;;104196;1291;544716;-71
2024/01/29 13:44:25;;;;;;;13.00;6.50;;;;;;;;;;103682;1301;544891;-72
2024/01/29 13:48:04;;;;;;;16.80;7.20;;;;;;;;;;103736;1289;544938;-71
2024/01/29 13:51:40;;;;;;;21.00;7.70;;;;;;;;;;103750;1290;545468;-72
2024/01/29 13:55:18;;;;;;;14.00;7.40;;;;;;;;;;103768;1291;545227;-74
2024/01/29 13:58:55;;;;;;;13.70;7.00;;;;;;;;;;103711;1289;545092;-71
2024/01/29 14:02:34;;;;;;;15.00;8.00;;;;;;;;;;104132;1285;545043;-71
2024/01/29 14:06:14;;;;;;;16.40;8.30;;;;;;;;;;103769;1289;545994;-72
2024/01/29 14:09:48;;;;;;;13.70;6.60;;;;;;;;;;103799;1290;546658;-72
2024/01/29 14:13:25;;;;;;;12.40;6.90;;;;;;;;;;103622;1305;545564;-71
2024/01/29 14:17:02;;;;;;;13.40;7.00;;;;;;;;;;103928;1290;544964;-72
2024/01/29 14:20:36;;;;;;;15.20;7.80;;;;;;;;;;103764;1288;546257;-71
2024/01/29 14:24:18;;;;;;;15.60;7.40;;;;;;;;;;103988;1289;545014;-71
2024/01/29 14:27:56;;;;;;;18.30;8.50;;;;;;;;;;103972;1288;545602;-71
2024/01/29 14:31:34;;;;;;;17.20;8.40;;;;;;;;;;104312;1289;544923;-71
2024/01/29 14:35:08;;;;;;;20.30;9.70;;;;;;;;;;103830;1293;544813;-71
2024/01/29 14:38:55;;;;;;;17.90;8.80;;;;;;;;;;103759;1289;545544;-72
2024/01/29 14:42:25;;;;;;;19.00;10.70;;;;;;;;;;103847;1289;546063;-71
2024/01/29 14:46:06;;;;;;;27.00;12.70;;;;;;;;;;103752;1292;545611;-71
2024/01/29 14:49:40;;;;;;;18.20;9.00;;;;;;;;;;103489;1294;544803;-71
2024/01/29 14:53:18;;;;;;;15.40;7.40;;;;;;;;;;103808;1290;545027;-73
2024/01/29 14:56:55;;;;;;;16.10;6.30;;;;;;;;;;103852;1288;544757;-71
2024/01/29 15:00:34;;;;;;;12.60;6.60;;;;;;;;;;103917;1289;545510;-72
2024/01/29 15:04:11;;;;;;;18.30;6.60;;;;;;;;;;103586;1291;544820;-72
2024/01/29 15:07:48;;;;;;;10.20;4.50;;;;;;;;;;103362;1295;546626;-70
2024/01/29 15:11:24;;;;;;;13.30;4.90;;;;;;;;;;103727;1289;544763;-71
2024/01/29 15:15:05;;;;;;;13.20;6.60;;;;;;;;;;103683;1292;544996;-73
2024/01/29 15:18:40;;;;;;;11.50;5.10;;;;;;;;;;103672;1291;545181;-70
2024/01/29 15:22:19;;;;;;;12.40;5.60;;;;;;;;;;103678;1290;545268;-71
2024/01/29 15:25:54;;;;;;;15.20;6.40;;;;;;;;;;103701;1292;544959;-69
2024/01/29 15:29:32;;;;;;;12.20;6.50;;;;;;;;;;103584;1290;544848;-73
2024/01/29 15:33:06;;;;;;;13.10;5.90;;;;;;;;;;103799;1288;545318;-73
2024/01/29 15:36:48;;;;;;;11.20;5.60;;;;;;;;;;103758;1289;544876;-71
2024/01/29 15:40:24;;;;;;;13.40;5.90;;;;;;;;;;103819;1289;544761;-72
2024/01/29 15:44:03;;;;;;;13.00;6.20;;;;;;;;;;103666;1291;545391;-73
2024/01/29 15:47:39;;;;;;;12.00;6.30;;;;;;;;;;103662;1289;545399;-72
2024/01/29 15:51:17;;;;;;;13.10;6.70;;;;;;;;;;103745;1292;545595;-73
2024/01/29 15:54:54;;;;;;;15.40;5.80;;;;;;;;;;103759;1288;545028;-72
2024/01/29 15:58:32;;;;;;;13.10;6.20;;;;;;;;;;103761;1292;545160;-72
2024/01/29 16:02:08;;;;;;;12.70;6.00;;;;;;;;;;103732;1290;545542;-73
2024/01/29 16:05:46;;;;;;;10.80;5.70;;;;;;;;;;103600;1294;545040;-72
2024/01/29 16:09:24;;;;;;;12.40;6.00;;;;;;;;;;103682;1289;544980;-72
2024/01/29 16:13:01;;;;;;;13.20;6.70;;;;;;;;;;103486;1295;544965;-72
2024/01/29 16:16:39;;;;;;;15.40;7.60;;;;;;;;;;103790;1291;544946;-72
2024/01/29 16:20:16;;;;;;;16.70;8.20;;;;;;;;;;103708;1289;545044;-73
2024/01/29 16:23:53;;;;;;;17.10;7.90;;;;;;;;;;103983;1288;545908;-72
2024/01/29 16:27:31;;;;;;;19.70;10.30;;;;;;;;;;103718;1295;546507;-73
2024/01/29 16:31:08;;;;;;;16.50;9.20;;;;;;;;;;103813;1294;545385;-72
2024/01/29 16:34:45;;;;;;;13.80;7.40;;;;;;;;;;103686;1291;545361;-71
2024/01/29 16:38:23;;;;;;;17.70;8.80;;;;;;;;;;103697;1292;545078;-73
2024/01/29 16:42:00;;;;;;;18.60;9.20;;;;;;;;;;103708;1291;544804;-72
2024/01/29 16:45:38;;;;;;;14.90;8.10;;;;;;;;;;103720;1290;544658;-71
2024/01/29 16:49:16;;;;;;;15.70;8.20;;;;;;;;;;103667;1296;545424;-72
2024/01/29 16:52:53;;;;;;;21.80;10.60;;;;;;;;;;103590;1297;544847;-73
2024/01/29 16:56:32;;;;;;;25.10;11.30;;;;;;;;;;103708;1302;544855;-73
2024/01/29 17:00:08;;;;;;;16.60;9.10;;;;;;;;;;103705;1292;544819;-73
2024/01/29 17:03:45;;;;;;;16.60;8.50;;;;;;;;;;103652;1292;545892;-72
2024/01/29 17:07:26;;;;;;;17.00;9.00;;;;;;;;;;103677;1292;544943;-72
2024/01/29 17:11:00;;;;;;;18.60;10.00;;;;;;;;;;103756;1290;545732;-73
2024/01/29 17:14:38;;;;;;;20.40;10.20;;;;;;;;;;103758;1289;544843;-72
2024/01/29 17:18:15;;;;;;;22.30;12.20;;;;;;;;;;104144;1286;545510;-70
2024/01/29 17:21:53;;;;;;;22.40;11.80;;;;;;;;;;103833;1290;544924;-72
2024/01/29 17:25:30;;;;;;;20.70;10.80;;;;;;;;;;103617;1295;544711;-72
2024/01/29 17:29:08;;;;;;;19.20;10.20;;;;;;;;;;103731;1291;544964;-72
2024/01/29 17:33:05;;;;;;;24.40;11.50;;;;;;;;;;103605;1302;548221;-73
2024/01/29 17:36:23;;;;;;;21.90;11.70;;;;;;;;;;103737;1292;545309;-72
2024/01/29 17:40:00;;;;;;;23.40;13.70;;;;;;;;;;103759;1295;545669;-72
2024/01/29 17:43:40;;;;;;;27.00;13.90;;;;;;;;;;103681;1290;544855;-73
2024/01/29 17:47:11;;;;;;;31.80;16.50;;;;;;;;;;103806;1299;545363;-72
2024/01/29 17:50:52;;;;;;;27.70;14.00;;;;;;;;;;103748;1289;545258;-72
2024/01/29 17:54:30;;;;;;;22.90;12.10;;;;;;;;;;103656;1291;545276;-72
2024/01/29 17:58:07;;;;;;;24.90;12.50;;;;;;;;;;103724;1295;545127;-72
2024/01/29 18:01:45;;;;;;;25.60;12.80;;;;;;;;;;104923;1282;545442;-72
2024/01/29 18:05:22;;;;;;;22.70;12.00;;;;;;;;;;104612;1287;544959;-72
2024/01/29 18:08:59;;;;;;;20.40;11.30;;;;;;;;;;104130;1286;545384;-72
2024/01/29 18:12:37;;;;;;;18.30;9.70;;;;;;;;;;103659;1291;546375;-73
2024/01/29 18:16:14;;;;;;;17.40;9.60;;;;;;;;;;104494;1286;545756;-72
2024/01/29 18:19:54;;;;;;;18.60;9.20;;;;;;;;;;103814;1290;545047;-72
2024/01/29 18:23:29;;;;;;;18.60;9.30;;;;;;;;;;103626;1292;545514;-71
2024/01/29 18:27:10;;;;;;;18.10;9.30;;;;;;;;;;103634;1296;544760;-72
2024/01/29 18:30:45;;;;;;;17.00;9.50;;;;;;;;;;103705;1292;545459;-73
2024/01/29 18:34:18;;;;;;;17.40;8.70;;;;;;;;;;103903;1289;545203;-72
2024/01/29 18:38:00;;;;;;;16.80;9.10;;;;;;;;;;103566;1290;544965;-72
2024/01/29 18:41:37;;;;;;;17.50;9.00;;;;;;;;;;103716;1289;544990;-72
2024/01/29 18:45:15;;;;;;;17.00;8.30;;;;;;;;;;103664;1293;545488;-72
2024/01/29 18:48:52;;;;;;;14.50;7.70;;;;;;;;;;103727;1291;544756;-73
2024/01/29 18:52:30;;;;;;;17.90;8.50;;;;;;;;;;103556;1291;545484;-72
2024/01/29 18:56:07;;;;;;;17.60;8.60;;;;;;;;;;103764;1289;544796;-72
2024/01/29 18:59:45;;;;;;;19.50;9.10;;;;;;;;;;103755;1288;544926;-72
2024/01/29 19:03:22;;;;;;;16.70;8.20;;;;;;;;;;103770;1289;545054;-73
2024/01/29 19:07:00;;;;;;;17.80;9.20;;;;;;;;;;103725;1289;545526;-72
2024/01/29 19:10:37;;;;;;;15.90;7.60;;;;;;;;;;103758;1289;545341;-73
2024/01/29 19:14:15;;;;;;;14.90;7.80;;;;;;;;;;103782;1288;545098;-72
2024/01/29 19:17:52;;;;;;;16.80;7.50;;;;;;;;;;103707;1292;544776;-73
2024/01/29 19:21:30;;;;;;;14.70;7.40;;;;;;;;;;103573;1291;545526;-72
2024/01/29 19:25:07;;;;;;;14.80;6.60;;;;;;;;;;103698;1293;544614;-73
2024/01/29 19:28:44;;;;;;;14.60;7.50;;;;;;;;;;103868;1292;545192;-72
2024/01/29 19:32:22;;;;;;;16.60;8.00;;;;;;;;;;103802;1290;545266;-72
2024/01/29 19:35:56;;;;;;;17.30;8.00;;;;;;;;;;103694;1292;544918;-72
2024/01/29 19:39:37;;;;;;;15.80;7.80;;;;;;;;;;103584;1291;546022;-73
2024/01/29 19:43:15;;;;;;;15.00;7.30;;;;;;;;;;103710;1290;545048;-72
2024/01/29 19:46:52;;;;;;;15.60;7.50;;;;;;;;;;103695;1292;545456;-72
2024/01/29 19:50:29;;;;;;;14.80;7.50;;;;;;;;;;103678;1294;544713;-73
2024/01/29 19:54:03;;;;;;;13.90;7.30;;;;;;;;;;103704;1294;544952;-72
2024/01/29 19:57:41;;;;;;;17.30;6.90;;;;;;;;;;103857;1290;544775;-72
2024/01/29 20:01:22;;;;;;;13.60;7.20;;;;;;;;;;103633;1291;545272;-72
2024/01/29 20:05:00;;;;;;;13.70;7.00;;;;;;;;;;103619;1289;545243;-72
2024/01/29 20:08:32;;;;;;;13.30;6.90;;;;;;;;;;104061;1289;545676;-72
2024/01/29 20:12:11;;;;;;;12.50;6.80;;;;;;;;;;103759;1289;545013;-72
2024/01/29 20:15:52;;;;;;;15.50;7.70;;;;;;;;;;103778;1292;545758;-73
2024/01/29 20:19:30;;;;;;;15.00;7.10;;;;;;;;;;103586;1296;545078;-73
2024/01/29 20:23:07;;;;;;;15.20;7.60;;;;;;;;;;103754;1290;544845;-72
2024/01/29 20:26:53;;;;;;;16.00;7.20;;;;;;;;;;104461;1282;544837;-72
2024/01/29 20:30:21;;;;;;;16.30;8.10;;;;;;;;;;103640;1292;546079;-72
2024/01/29 20:33:55;;;;;;;14.80;6.80;;;;;;;;;;103740;1290;546025;-73
2024/01/29 20:37:38;;;;;;;14.70;7.20;;;;;;;;;;103811;1289;545051;-72
2024/01/29 20:41:10;;;;;;;13.50;6.70;;;;;;;;;;103626;1289;545497;-73
2024/01/29 20:44:51;;;;;;;14.50;6.50;;;;;;;;;;105827;1289;545607;-71